createdAt,value
2018-09-06T00:01:20.035Z,99.90
2018-09-06T00:03:49.223Z,99.90
2018-09-06T00:06:18.503Z,99.90
2018-09-06T00:08:47.661Z,99.90
2018-09-06T00:11:16.858Z,99.90
2018-09-06T00:13:45.995Z,99.90
2018-09-06T00:16:15.159Z,99.90
2018-09-06T00:18:44.629Z,99.90
2018-09-06T00:21:13.811Z,99.90
2018-09-06T00:23:42.935Z,99.90
2018-09-06T00:26:12.151Z,99.90
2018-09-06T00:28:41.328Z,99.90
2018-09-06T00:31:10.539Z,99.90
2018-09-06T00:33:39.666Z,99.90
2018-09-06T00:36:09.635Z,99.90
2018-09-06T00:38:38.766Z,99.90
2018-09-06T00:41:07.895Z,99.90
2018-09-06T00:43:37.015Z,99.90
2018-09-06T00:46:06.225Z,99.90
2018-09-06T00:48:35.375Z,99.90
2018-09-06T00:51:04.599Z,99.90
2018-09-06T00:53:33.718Z,99.90
2018-09-06T00:56:02.829Z,99.90
2018-09-06T00:58:32.037Z,99.90
2018-09-06T01:01:01.178Z,99.90
2018-09-06T01:03:31.510Z,99.90
2018-09-06T01:06:02.363Z,99.90
2018-09-06T01:08:32.252Z,99.90
2018-09-06T01:11:02.088Z,99.90
2018-09-06T01:13:31.799Z,99.90
2018-09-06T01:16:01.709Z,99.90
2018-09-06T01:18:31.374Z,99.90
2018-09-06T01:21:00.922Z,99.90
2018-09-06T01:23:30.220Z,99.90
2018-09-06T01:25:59.637Z,99.90
2018-09-06T01:28:28.821Z,99.90
2018-09-06T01:30:57.938Z,99.90
2018-09-06T01:33:27.048Z,99.90
2018-09-06T01:36:02.403Z,99.90
2018-09-06T01:38:32.224Z,99.90
2018-09-06T01:41:01.357Z,99.90
2018-09-06T01:43:30.531Z,99.90
2018-09-06T01:45:59.634Z,99.90
2018-09-06T01:48:28.768Z,99.90
2018-09-06T01:50:57.942Z,99.90
2018-09-06T01:53:27.250Z,99.90
2018-09-06T01:55:56.348Z,99.90
2018-09-06T01:58:25.568Z,99.90
2018-09-06T02:00:54.686Z,99.90
2018-09-06T02:03:23.793Z,99.90
2018-09-06T02:05:52.919Z,99.90
2018-09-06T02:08:22.086Z,99.90
2018-09-06T02:10:51.193Z,99.90
2018-09-06T02:13:20.306Z,99.90
2018-09-06T02:15:49.515Z,99.90
2018-09-06T02:18:18.661Z,99.90
2018-09-06T02:20:47.762Z,99.90
2018-09-06T02:23:16.909Z,99.90
2018-09-06T02:25:46.055Z,99.90
2018-09-06T02:28:15.369Z,99.90
2018-09-06T02:30:44.468Z,99.90
2018-09-06T02:33:13.601Z,99.90
2018-09-06T02:35:42.766Z,99.90
2018-09-06T02:38:11.874Z,99.90
2018-09-06T02:40:41.279Z,99.90
2018-09-06T02:43:12.554Z,99.90
2018-09-06T02:45:43.049Z,99.90
2018-09-06T02:48:12.221Z,99.90
2018-09-06T02:50:46.690Z,99.90
2018-09-06T02:53:15.854Z,99.90
2018-09-06T02:55:45.947Z,99.90
2018-09-06T02:58:15.108Z,99.90
2018-09-06T03:00:44.266Z,99.90
2018-09-06T03:03:13.373Z,99.90
2018-09-06T03:05:42.468Z,99.90
2018-09-06T03:08:11.594Z,99.90
2018-09-06T03:10:42.780Z,99.90
2018-09-06T03:13:11.886Z,99.90
2018-09-06T03:15:41.217Z,99.90
2018-09-06T03:18:10.383Z,99.90
2018-09-06T03:20:39.501Z,99.90
2018-09-06T03:23:08.594Z,99.90
2018-09-06T03:25:37.794Z,99.90
2018-09-06T03:28:06.893Z,99.90
2018-09-06T03:30:36.023Z,99.90
2018-09-06T03:33:05.114Z,99.90
2018-09-06T03:35:34.293Z,99.90
2018-09-06T03:38:03.408Z,99.90
2018-09-06T03:40:32.586Z,99.90
2018-09-06T03:43:02.343Z,99.90
2018-09-06T03:45:31.459Z,99.90
2018-09-06T03:48:00.570Z,99.90
2018-09-06T03:50:29.690Z,99.90
2018-09-06T03:52:58.811Z,99.90
2018-09-06T03:55:28.273Z,99.90
2018-09-06T03:57:57.465Z,99.90
2018-09-06T04:00:26.642Z,99.90
2018-09-06T04:02:55.854Z,99.90
2018-09-06T04:05:28.110Z,99.90
2018-09-06T04:07:57.202Z,99.90
2018-09-06T04:10:26.331Z,99.90
2018-09-06T04:12:55.442Z,99.90
2018-09-06T04:15:24.566Z,99.90
2018-09-06T04:17:53.670Z,99.90
2018-09-06T04:20:22.846Z,99.90
2018-09-06T04:22:52.885Z,99.90
2018-09-06T04:25:22.005Z,99.90
2018-09-06T04:27:51.109Z,99.90
2018-09-06T04:30:20.237Z,99.90
2018-09-06T04:32:49.346Z,99.90
2018-09-06T04:35:18.711Z,99.90
2018-09-06T04:37:47.777Z,99.90
2018-09-06T04:40:16.884Z,99.90
2018-09-06T04:42:45.993Z,99.90
2018-09-06T04:45:15.190Z,99.90
2018-09-06T04:47:44.282Z,99.90
2018-09-06T04:50:13.423Z,99.90
2018-09-06T04:52:42.511Z,99.90
2018-09-06T04:55:11.662Z,99.90
2018-09-06T04:57:40.762Z,99.90
2018-09-06T05:00:09.894Z,99.90
2018-09-06T05:02:39.014Z,99.90
2018-09-06T05:05:08.157Z,99.90
2018-09-06T05:07:37.251Z,99.90
2018-09-06T05:10:07.114Z,99.90
2018-09-06T05:12:36.209Z,99.90
2018-09-06T05:15:05.488Z,99.90
2018-09-06T05:17:34.617Z,99.90
2018-09-06T05:20:03.805Z,99.90
2018-09-06T05:22:32.906Z,99.90
2018-09-06T05:25:02.078Z,99.90
2018-09-06T05:27:31.206Z,99.90
2018-09-06T05:30:00.330Z,99.90
2018-09-06T05:32:29.449Z,99.90
2018-09-06T05:34:58.570Z,99.90
2018-09-06T05:37:27.752Z,99.90
2018-09-06T05:39:56.890Z,99.90
2018-09-06T05:42:26.049Z,99.90
2018-09-06T05:44:55.198Z,99.90
2018-09-06T05:47:24.365Z,99.90
2018-09-06T05:49:53.487Z,99.90
2018-09-06T05:52:22.646Z,99.90
2018-09-06T05:54:51.930Z,99.90
2018-09-06T05:57:21.062Z,99.90
2018-09-06T05:59:50.248Z,99.90
2018-09-06T06:02:19.363Z,99.90
2018-09-06T06:04:48.702Z,99.90
2018-09-06T06:07:17.849Z,99.90
2018-09-06T06:09:46.966Z,99.90
2018-09-06T06:12:16.140Z,99.90
2018-09-06T06:14:45.250Z,99.90
2018-09-06T06:17:14.394Z,99.90
2018-09-06T06:19:43.526Z,99.90
2018-09-06T06:22:12.747Z,99.90
2018-09-06T06:24:41.834Z,99.90
2018-09-06T06:27:10.978Z,99.90
2018-09-06T06:29:40.106Z,99.90
2018-09-06T06:32:09.308Z,99.90
2018-09-06T06:34:38.523Z,99.90
2018-09-06T06:37:07.702Z,99.90
2018-09-06T06:39:36.813Z,99.90
2018-09-06T06:42:06.027Z,99.90
2018-09-06T06:44:35.290Z,99.90
2018-09-06T06:47:04.433Z,99.90
2018-09-06T06:49:33.946Z,99.90
2018-09-06T06:52:03.072Z,99.90
2018-09-06T06:54:32.174Z,99.90
2018-09-06T06:57:01.338Z,99.90
2018-09-06T06:59:30.446Z,99.90
2018-09-06T07:01:59.526Z,99.90
2018-09-06T07:04:28.671Z,99.90
2018-09-06T07:06:57.884Z,99.90
2018-09-06T07:09:26.899Z,99.90
2018-09-06T07:11:55.998Z,99.90
2018-09-06T07:14:25.158Z,99.90
2018-09-06T07:16:54.249Z,99.90
2018-09-06T07:19:23.361Z,99.90
2018-09-06T07:21:52.470Z,99.90
2018-09-06T07:24:21.701Z,99.90
2018-09-06T07:26:50.802Z,99.90
2018-09-06T07:29:19.923Z,99.90
2018-09-06T07:31:50.016Z,99.90
2018-09-06T07:34:20.108Z,99.90
2018-09-06T07:36:50.661Z,99.90
2018-09-06T07:39:21.876Z,99.90
2018-09-06T07:41:52.471Z,99.90
2018-09-06T07:44:22.736Z,99.90
2018-09-06T07:46:53.248Z,99.90
2018-09-06T07:49:23.142Z,99.90
2018-09-06T07:51:52.464Z,99.90
2018-09-06T07:54:23.237Z,99.90
2018-09-06T07:56:56.662Z,99.90
2018-09-06T07:59:26.666Z,99.90
2018-09-06T08:01:57.376Z,99.90
2018-09-06T08:04:27.115Z,99.90
2018-09-06T08:06:57.366Z,99.90
2018-09-06T08:09:26.950Z,99.90
2018-09-06T08:11:56.739Z,99.90
2018-09-06T08:14:26.758Z,99.90
2018-09-06T08:16:57.886Z,99.90
2018-09-06T08:19:27.021Z,99.90
2018-09-06T08:21:58.402Z,99.90
2018-09-06T08:24:28.508Z,99.90
2018-09-06T08:26:57.850Z,99.90
2018-09-06T08:29:26.997Z,99.90
2018-09-06T08:31:56.338Z,99.90
2018-09-06T08:34:25.548Z,99.90
2018-09-06T08:36:54.764Z,99.90
2018-09-06T08:39:23.826Z,99.90
2018-09-06T08:41:53.394Z,99.90
2018-09-06T08:44:22.547Z,99.90
2018-09-06T08:46:51.809Z,99.90
2018-09-06T08:49:21.052Z,99.90
2018-09-06T08:51:50.733Z,99.90
2018-09-06T08:54:20.286Z,99.90
2018-09-06T08:56:49.378Z,99.90
2018-09-06T08:59:18.547Z,99.90
2018-09-06T09:01:47.878Z,99.00
2018-09-06T09:04:16.997Z,99.80
2018-09-06T09:06:46.618Z,97.30
2018-09-06T09:09:16.357Z,96.00
2018-09-06T09:11:45.968Z,96.10
2018-09-06T09:14:15.058Z,94.40
2018-09-06T09:16:44.161Z,91.70
2018-09-06T09:19:13.285Z,90.90
2018-09-06T09:21:42.500Z,91.00
2018-09-06T09:24:11.683Z,91.20
2018-09-06T09:26:41.049Z,88.20
2018-09-06T09:29:10.142Z,87.20
2018-09-06T09:31:39.317Z,83.20
2018-09-06T09:34:08.797Z,84.20
2018-09-06T09:36:37.982Z,82.60
2018-09-06T09:39:08.753Z,84.00
2018-09-06T09:41:37.881Z,90.30
2018-09-06T09:44:07.055Z,91.00
2018-09-06T09:49:04.521Z,84.00
2018-09-06T09:51:33.704Z,82.40
2018-09-06T09:54:02.844Z,86.00
2018-09-06T09:56:31.998Z,83.30
2018-09-06T09:59:01.320Z,85.90
2018-09-06T10:02:34.672Z,85.60
2018-09-06T10:05:09.115Z,84.00
2018-09-06T10:07:43.577Z,82.80
2018-09-06T10:10:12.696Z,80.50
2018-09-06T10:12:41.885Z,78.80
2018-09-06T10:15:11.022Z,81.10
2018-09-06T10:17:40.165Z,80.00
2018-09-06T10:20:09.294Z,83.60
2018-09-06T10:22:38.554Z,80.30
2018-09-06T10:25:07.712Z,77.50
2018-09-06T10:27:36.982Z,73.70
2018-09-06T10:30:06.258Z,74.40
2018-09-06T10:32:35.507Z,70.00
2018-09-06T10:35:04.722Z,68.50
2018-09-06T10:37:33.896Z,68.70
2018-09-06T10:40:03.107Z,67.90
2018-09-06T10:42:32.174Z,68.70
2018-09-06T10:45:01.386Z,68.90
2018-09-06T10:47:30.521Z,67.20
2018-09-06T10:49:59.646Z,67.10
2018-09-06T10:52:28.790Z,61.60
2018-09-06T10:55:00.917Z,63.30
2018-09-06T10:57:30.068Z,64.20
2018-09-06T10:59:59.727Z,60.50
2018-09-06T11:02:28.970Z,59.10
2018-09-06T11:04:58.146Z,59.30
2018-09-06T11:07:27.248Z,59.50
2018-09-06T11:09:56.334Z,59.60
2018-09-06T11:12:25.435Z,58.50
2018-09-06T11:14:54.529Z,58.10
2018-09-06T11:17:23.655Z,57.60
2018-09-06T11:19:52.750Z,57.60
2018-09-06T11:22:21.946Z,58.00
2018-09-06T11:24:50.981Z,58.90
2018-09-06T11:27:20.154Z,58.20
2018-09-06T11:29:49.203Z,54.70
2018-09-06T11:32:18.309Z,55.30
2018-09-06T11:34:47.575Z,57.30
2018-09-06T11:37:16.754Z,55.50
2018-09-06T11:39:45.937Z,54.80
2018-09-06T11:42:15.082Z,54.90
2018-09-06T11:44:44.317Z,52.70
2018-09-06T11:47:13.525Z,55.90
2018-09-06T11:49:42.557Z,54.40
2018-09-06T11:52:11.695Z,54.30
2018-09-06T11:54:40.787Z,52.10
2018-09-06T11:57:09.952Z,51.80
2018-09-06T11:59:39.076Z,52.00
2018-09-06T12:02:08.242Z,54.50
2018-09-06T12:04:37.375Z,55.70
2018-09-06T12:07:06.493Z,52.40
2018-09-06T12:09:35.618Z,50.70
2018-09-06T12:12:04.731Z,52.20
2018-09-06T12:14:33.928Z,52.70
2018-09-06T12:17:03.055Z,52.80
2018-09-06T12:19:32.202Z,51.70
2018-09-06T12:22:01.633Z,50.40
2018-09-06T12:24:30.765Z,50.60
2018-09-06T12:26:59.866Z,53.00
2018-09-06T12:29:29.082Z,52.00
2018-09-06T12:31:58.230Z,50.80
2018-09-06T12:34:27.681Z,49.80
2018-09-06T12:36:56.825Z,49.50
2018-09-06T12:39:26.003Z,49.30
2018-09-06T12:41:55.166Z,48.80
2018-09-06T12:44:24.318Z,48.70
2018-09-06T12:46:53.438Z,49.00
2018-09-06T12:49:22.554Z,49.10
2018-09-06T12:51:51.640Z,49.00
2018-09-06T12:54:21.127Z,48.40
2018-09-06T12:56:50.254Z,47.60
2018-09-06T12:59:19.415Z,47.40
2018-09-06T13:01:48.502Z,47.40
2018-09-06T13:04:17.766Z,46.90
2018-09-06T13:06:46.894Z,48.00
2018-09-06T13:09:15.993Z,48.80
2018-09-06T13:11:45.107Z,49.00
2018-09-06T13:14:14.206Z,49.80
2018-09-06T13:16:43.330Z,49.80
2018-09-06T13:19:12.422Z,50.40
2018-09-06T13:21:41.520Z,52.00
2018-09-06T13:24:10.599Z,53.50
2018-09-06T13:26:39.707Z,54.40
2018-09-06T13:29:08.777Z,55.40
2018-09-06T13:31:37.922Z,56.60
2018-09-06T13:34:07.054Z,57.50
2018-09-06T13:36:36.186Z,58.90
2018-09-06T13:39:07.464Z,59.80
2018-09-06T13:41:36.574Z,60.10
2018-09-06T13:44:05.645Z,61.50
2018-09-06T13:46:34.901Z,62.90
2018-09-06T13:49:04.007Z,64.80
2018-09-06T13:51:33.110Z,65.80
2018-09-06T13:54:02.187Z,64.90
2018-09-06T13:56:31.280Z,65.70
2018-09-06T13:59:00.421Z,66.00
2018-09-06T14:01:29.538Z,67.10
2018-09-06T14:03:58.810Z,67.90
2018-09-06T14:06:27.970Z,67.40
2018-09-06T14:08:57.066Z,66.60
2018-09-06T14:11:26.178Z,65.30
2018-09-06T14:13:55.381Z,65.30
2018-09-06T14:16:24.574Z,66.90
2018-09-06T14:18:53.642Z,66.60
2018-09-06T14:21:22.745Z,65.00
2018-09-06T14:23:51.859Z,65.40
2018-09-06T14:26:20.986Z,65.40
2018-09-06T14:28:50.085Z,71.90
2018-09-06T14:31:19.428Z,64.40
2018-09-06T14:33:49.618Z,61.60
2018-09-06T14:36:19.383Z,61.80
2018-09-06T14:38:49.568Z,60.40
2018-09-06T14:41:19.788Z,61.40
2018-09-06T14:43:49.853Z,59.80
2018-09-06T14:46:19.288Z,60.30
2018-09-06T14:48:48.442Z,59.10
2018-09-06T14:51:18.735Z,59.50
2018-09-06T14:53:49.491Z,61.50
2018-09-06T14:56:20.722Z,61.60
2018-09-06T14:58:50.730Z,60.70
2018-09-06T15:01:20.299Z,62.20
2018-09-06T15:03:50.303Z,63.60
2018-09-06T15:06:20.440Z,63.70
2018-09-06T15:08:50.510Z,62.60
2018-09-06T15:11:19.609Z,64.90
2018-09-06T15:13:49.541Z,64.70
2018-09-06T15:16:18.659Z,63.20
2018-09-06T15:18:47.872Z,63.80
2018-09-06T15:21:16.981Z,66.00
2018-09-06T15:23:46.081Z,66.30
2018-09-06T15:26:16.125Z,66.00
2018-09-06T15:28:45.329Z,67.20
2018-09-06T15:31:14.406Z,68.80
2018-09-06T15:33:44.472Z,68.50
2018-09-06T15:36:13.647Z,67.30
2018-09-06T15:38:43.739Z,67.20
2018-09-06T15:41:12.905Z,69.90
2018-09-06T15:43:42.182Z,67.80
2018-09-06T15:46:11.315Z,66.70
2018-09-06T15:48:40.455Z,65.40
2018-09-06T15:51:09.640Z,66.50
2018-09-06T15:53:39.095Z,67.30
2018-09-06T15:56:09.093Z,71.10
2018-09-06T15:58:38.314Z,71.70
2018-09-06T16:01:07.507Z,71.00
2018-09-06T16:03:36.638Z,71.10
2018-09-06T16:06:06.079Z,71.40
2018-09-06T16:08:35.198Z,71.10
2018-09-06T16:11:04.317Z,72.80
2018-09-06T16:13:33.830Z,73.90
2018-09-06T16:16:02.936Z,75.20
2018-09-06T16:18:32.147Z,75.30
2018-09-06T16:21:01.285Z,72.70
2018-09-06T16:23:30.447Z,73.60
2018-09-06T16:25:59.584Z,72.80
2018-09-06T16:28:28.717Z,72.70
2018-09-06T16:30:57.834Z,72.80
2018-09-06T16:33:26.966Z,73.40
2018-09-06T16:35:56.148Z,74.50
2018-09-06T16:38:31.813Z,75.70
2018-09-06T16:41:00.953Z,77.60
2018-09-06T16:43:30.314Z,78.80
2018-09-06T16:45:59.441Z,80.20
2018-09-06T16:48:28.586Z,81.80
2018-09-06T16:50:58.075Z,83.70
2018-09-06T16:53:28.063Z,82.90
2018-09-06T16:55:57.158Z,82.10
2018-09-06T16:58:26.499Z,82.10
2018-09-06T17:00:55.754Z,82.80
2018-09-06T17:03:25.037Z,83.30
2018-09-06T17:05:54.146Z,84.40
2018-09-06T17:08:23.312Z,84.40
2018-09-06T17:10:52.417Z,84.80
2018-09-06T17:13:21.611Z,86.50
2018-09-06T17:15:50.728Z,87.40
2018-09-06T17:18:19.862Z,85.50
2018-09-06T17:20:48.979Z,87.50
2018-09-06T17:23:18.093Z,85.70
2018-09-06T17:25:49.699Z,88.40
2018-09-06T17:28:18.807Z,88.00
2018-09-06T17:30:47.912Z,86.40
2018-09-06T17:33:17.455Z,87.90
2018-09-06T17:35:46.611Z,85.00
2018-09-06T17:38:17.885Z,85.90
2018-09-06T17:40:47.175Z,78.90
2018-09-06T17:43:16.346Z,76.20
2018-09-06T17:45:45.495Z,74.70
2018-09-06T17:48:15.171Z,77.00
2018-09-06T17:50:50.701Z,82.10
2018-09-06T17:53:20.215Z,81.50
2018-09-06T17:55:49.542Z,85.40
2018-09-06T17:58:18.897Z,86.10
2018-09-06T18:01:56.546Z,86.60
2018-09-06T18:04:26.279Z,88.50
2018-09-06T18:06:55.447Z,90.90
2018-09-06T18:09:24.635Z,90.30
2018-09-06T18:11:54.405Z,90.30
2018-09-06T18:14:23.766Z,91.50
2018-09-06T18:16:59.574Z,91.70
2018-09-06T18:19:28.753Z,91.70
2018-09-06T18:21:57.964Z,91.90
2018-09-06T18:24:27.257Z,93.70
2018-09-06T18:26:57.690Z,93.60
2018-09-06T18:29:27.824Z,93.50
2018-09-06T18:31:58.984Z,93.90
2018-09-06T18:34:28.760Z,94.70
2018-09-06T18:36:58.067Z,95.30
2018-09-06T18:39:27.275Z,95.30
2018-09-06T18:41:56.756Z,94.80
2018-09-06T18:44:26.005Z,94.70
2018-09-06T18:46:55.149Z,95.40
2018-09-06T18:49:24.606Z,95.00
2018-09-06T18:51:54.126Z,94.10
2018-09-06T18:54:23.309Z,94.00
2018-09-06T18:56:52.475Z,95.00
2018-09-06T18:59:21.997Z,94.30
2018-09-06T19:01:51.138Z,94.70
2018-09-06T19:04:20.274Z,95.90
2018-09-06T19:06:49.443Z,95.20
2018-09-06T19:09:23.245Z,95.70
2018-09-06T19:11:58.426Z,95.90
2018-09-06T19:14:28.138Z,95.70
2018-09-06T19:16:58.181Z,96.40
2018-09-06T19:19:27.358Z,96.70
2018-09-06T19:21:56.595Z,96.10
2018-09-06T19:24:25.977Z,94.80
2018-09-06T19:26:55.127Z,94.50
2018-09-06T19:29:25.635Z,94.20
2018-09-06T19:31:54.898Z,94.80
2018-09-06T19:34:24.257Z,94.90
2018-09-06T19:36:54.262Z,94.90
2018-09-06T19:39:24.605Z,95.80
2018-09-06T19:41:53.763Z,96.50
2018-09-06T19:44:22.888Z,98.30
2018-09-06T19:46:52.529Z,97.50
2018-09-06T19:49:21.658Z,96.70
2018-09-06T19:51:50.941Z,96.60
2018-09-06T19:54:20.549Z,97.50
2018-09-06T19:56:49.642Z,98.30
2018-09-06T19:59:18.830Z,98.90
2018-09-06T20:01:48.222Z,98.90
2018-09-06T20:04:18.143Z,99.90
2018-09-06T20:06:47.957Z,99.90
2018-09-06T20:09:17.283Z,99.90
2018-09-06T20:11:48.387Z,99.90
2018-09-06T20:14:18.804Z,99.90
2018-09-06T20:16:48.238Z,99.90
2018-09-06T20:19:17.366Z,99.90
2018-09-06T20:21:48.179Z,99.90
2018-09-06T20:24:17.397Z,99.90
2018-09-06T20:26:47.050Z,99.90
2018-09-06T20:29:16.251Z,99.90
2018-09-06T20:31:45.941Z,99.90
2018-09-06T20:34:15.133Z,99.90
2018-09-06T20:36:46.748Z,99.90
2018-09-06T20:39:17.341Z,99.90
2018-09-06T20:41:47.964Z,99.90
2018-09-06T20:44:18.640Z,99.90
2018-09-06T20:46:49.180Z,99.90
2018-09-06T20:49:18.341Z,99.90
2018-09-06T20:51:49.189Z,99.90
2018-09-06T20:54:22.002Z,99.90
2018-09-06T20:56:52.136Z,99.90
2018-09-06T20:59:21.867Z,99.90
2018-09-06T21:01:51.936Z,99.90
2018-09-06T21:04:24.226Z,99.90
2018-09-06T21:06:53.572Z,99.90
2018-09-06T21:09:23.196Z,99.90
2018-09-06T21:11:52.798Z,99.90
2018-09-06T21:14:21.915Z,99.90
2018-09-06T21:16:52.032Z,99.90
2018-09-06T21:19:21.582Z,99.90
2018-09-06T21:21:50.731Z,99.90
2018-09-06T21:24:20.193Z,99.90
2018-09-06T21:26:49.297Z,99.90
2018-09-06T21:29:18.464Z,99.90
2018-09-06T21:31:47.548Z,99.90
2018-09-06T21:34:16.793Z,99.90
2018-09-06T21:36:45.959Z,99.90
2018-09-06T21:39:15.106Z,99.90
2018-09-06T21:41:44.222Z,99.90
2018-09-06T21:44:13.508Z,99.90
2018-09-06T21:46:42.675Z,99.90
2018-09-06T21:49:12.112Z,99.90
2018-09-06T21:51:42.163Z,99.90
2018-09-06T21:54:11.348Z,99.90
2018-09-06T21:56:40.453Z,99.90
2018-09-06T21:59:09.566Z,99.90
2018-09-06T22:01:38.702Z,99.90
2018-09-06T22:04:08.700Z,99.90
2018-09-06T22:06:38.750Z,99.90
2018-09-06T22:09:11.605Z,99.90
2018-09-06T22:11:45.194Z,99.90
2018-09-06T22:14:14.300Z,99.90
2018-09-06T22:16:43.499Z,99.90
2018-09-06T22:19:12.665Z,99.90
2018-09-06T22:21:41.871Z,99.90
2018-09-06T22:24:11.058Z,99.90
2018-09-06T22:26:40.203Z,99.90
2018-09-06T22:29:09.331Z,99.90
2018-09-06T22:31:38.469Z,99.90
2018-09-06T22:34:07.766Z,99.90
2018-09-06T22:36:36.925Z,99.90
2018-09-06T22:39:08.531Z,99.90
2018-09-06T22:41:38.487Z,99.90
2018-09-06T22:44:07.843Z,99.90
2018-09-06T22:46:37.012Z,99.90
2018-09-06T22:49:06.246Z,99.90
2018-09-06T22:51:35.399Z,99.90
2018-09-06T22:54:04.529Z,99.90
2018-09-06T22:56:33.693Z,99.90
2018-09-06T22:59:02.834Z,99.90
2018-09-06T23:01:32.107Z,99.90
2018-09-06T23:04:01.401Z,99.90
2018-09-06T23:06:30.609Z,99.90
2018-09-06T23:08:59.749Z,99.90
2018-09-06T23:11:28.950Z,99.90
2018-09-06T23:13:58.178Z,99.90
2018-09-06T23:16:27.309Z,99.90
2018-09-06T23:18:56.444Z,99.90
2018-09-06T23:21:25.653Z,99.90
2018-09-06T23:23:54.770Z,99.90
2018-09-06T23:26:23.987Z,99.90
2018-09-06T23:28:53.128Z,99.90
2018-09-06T23:31:22.294Z,99.90
2018-09-06T23:33:51.459Z,99.90
2018-09-06T23:36:20.650Z,99.90
2018-09-06T23:38:49.782Z,99.90
2018-09-06T23:41:18.939Z,99.90
2018-09-06T23:43:48.167Z,99.90
2018-09-06T23:46:17.318Z,99.90
2018-09-06T23:48:46.450Z,99.90
2018-09-06T23:51:15.598Z,99.90
2018-09-06T23:53:44.705Z,99.90
2018-09-06T23:56:13.854Z,99.90
2018-09-06T23:58:42.978Z,99.90
